sensor_id;sensor_type;location;lat;lon;timestamp;P1;durP1;ratioP1;P2;durP2;ratioP2
8001;SDS011;4046;48.774;8.732;2023-08-30T00:00:40;2.10;;;1.80;;
8001;SDS011;4046;48.774;8.732;2023-08-30T00:03:06;1.80;;;1.70;;
8001;SDS011;4046;48.774;8.732;2023-08-30T00:05:32;1.50;;;1.40;;
8001;SDS011;4046;48.774;8.732;2023-08-30T00:07:58;1.70;;;1.60;;
8001;SDS011;4046;48.774;8.732;2023-08-30T00:10:24;1.80;;;1.70;;
8001;SDS011;4046;48.774;8.732;2023-08-30T00:12:50;1.97;;;1.70;;
8001;SDS011;4046;48.774;8.732;2023-08-30T00:15:16;1.50;;;1.40;;
8001;SDS011;4046;48.774;8.732;2023-08-30T00:17:42;1.60;;;1.50;;
8001;SDS011;4046;48.774;8.732;2023-08-30T00:20:08;1.70;;;1.60;;
8001;SDS011;4046;48.774;8.732;2023-08-30T00:22:34;1.67;;;1.57;;
8001;SDS011;4046;48.774;8.732;2023-08-30T00:25:01;1.47;;;1.37;;
8001;SDS011;4046;48.774;8.732;2023-08-30T00:27:27;1.40;;;1.30;;
8001;SDS011;4046;48.774;8.732;2023-08-30T00:29:52;1.80;;;1.70;;
8001;SDS011;4046;48.774;8.732;2023-08-30T00:32:18;1.60;;;1.50;;
8001;SDS011;4046;48.774;8.732;2023-08-30T00:34:44;1.60;;;1.40;;
8001;SDS011;4046;48.774;8.732;2023-08-30T00:37:09;1.40;;;1.30;;
8001;SDS011;4046;48.774;8.732;2023-08-30T00:39:38;1.50;;;1.40;;
8001;SDS011;4046;48.774;8.732;2023-08-30T00:42:04;1.97;;;1.50;;
8001;SDS011;4046;48.774;8.732;2023-08-30T00:44:32;1.60;;;1.50;;
8001;SDS011;4046;48.774;8.732;2023-08-30T00:46:59;1.47;;;1.37;;
8001;SDS011;4046;48.774;8.732;2023-08-30T00:49:26;2.47;;;1.30;;
8001;SDS011;4046;48.774;8.732;2023-08-30T00:51:52;2.43;;;1.63;;
8001;SDS011;4046;48.774;8.732;2023-08-30T00:54:19;1.40;;;1.30;;
8001;SDS011;4046;48.774;8.732;2023-08-30T00:56:46;1.53;;;1.43;;
8001;SDS011;4046;48.774;8.732;2023-08-30T00:59:12;1.40;;;1.30;;
8001;SDS011;4046;48.774;8.732;2023-08-30T01:01:39;1.50;;;1.40;;
8001;SDS011;4046;48.774;8.732;2023-08-30T01:04:06;2.40;;;1.50;;
8001;SDS011;4046;48.774;8.732;2023-08-30T01:06:32;1.33;;;1.23;;
8001;SDS011;4046;48.774;8.732;2023-08-30T01:09:00;1.30;;;1.17;;
8001;SDS011;4046;48.774;8.732;2023-08-30T01:14:09;1.50;;;1.37;;
8001;SDS011;4046;48.774;8.732;2023-08-30T01:16:40;1.43;;;1.33;;
8001;SDS011;4046;48.774;8.732;2023-08-30T01:19:16;1.67;;;1.57;;
8001;SDS011;4046;48.774;8.732;2023-08-30T01:22:01;1.43;;;1.33;;
8001;SDS011;4046;48.774;8.732;2023-08-30T01:24:37;1.30;;;1.20;;
8001;SDS011;4046;48.774;8.732;2023-08-30T01:27:24;1.60;;;1.30;;
8001;SDS011;4046;48.774;8.732;2023-08-30T01:29:50;2.07;;;1.30;;
8001;SDS011;4046;48.774;8.732;2023-08-30T01:32:19;1.53;;;1.43;;
8001;SDS011;4046;48.774;8.732;2023-08-30T01:34:47;1.50;;;1.40;;
8001;SDS011;4046;48.774;8.732;2023-08-30T01:37:15;1.60;;;1.50;;
8001;SDS011;4046;48.774;8.732;2023-08-30T01:39:42;1.50;;;1.40;;
8001;SDS011;4046;48.774;8.732;2023-08-30T01:42:08;1.33;;;1.20;;
8001;SDS011;4046;48.774;8.732;2023-08-30T01:44:35;1.73;;;1.40;;
8001;SDS011;4046;48.774;8.732;2023-08-30T01:47:03;1.40;;;1.30;;
8001;SDS011;4046;48.774;8.732;2023-08-30T01:49:29;1.63;;;1.53;;
8001;SDS011;4046;48.774;8.732;2023-08-30T01:51:59;1.70;;;1.50;;
8001;SDS011;4046;48.774;8.732;2023-08-30T01:54:25;1.50;;;1.40;;
8001;SDS011;4046;48.774;8.732;2023-08-30T01:56:53;1.50;;;1.40;;
8001;SDS011;4046;48.774;8.732;2023-08-30T01:59:19;1.57;;;1.30;;
8001;SDS011;4046;48.774;8.732;2023-08-30T02:01:44;1.33;;;1.23;;
8001;SDS011;4046;48.774;8.732;2023-08-30T02:04:10;1.30;;;1.20;;
8001;SDS011;4046;48.774;8.732;2023-08-30T02:06:39;1.40;;;1.30;;
8001;SDS011;4046;48.774;8.732;2023-08-30T02:12:06;2.23;;;1.43;;
8001;SDS011;4046;48.774;8.732;2023-08-30T02:14:36;1.37;;;1.27;;
8001;SDS011;4046;48.774;8.732;2023-08-30T02:17:03;2.90;;;1.50;;
8001;SDS011;4046;48.774;8.732;2023-08-30T02:19:31;1.70;;;1.50;;
8001;SDS011;4046;48.774;8.732;2023-08-30T02:21:57;1.43;;;1.30;;
8001;SDS011;4046;48.774;8.732;2023-08-30T02:24:23;1.53;;;1.43;;
8001;SDS011;4046;48.774;8.732;2023-08-30T02:26:49;2.03;;;1.40;;
8001;SDS011;4046;48.774;8.732;2023-08-30T02:29:15;1.47;;;1.37;;
8001;SDS011;4046;48.774;8.732;2023-08-30T02:31:41;2.13;;;1.40;;
8001;SDS011;4046;48.774;8.732;2023-08-30T02:34:06;1.40;;;1.10;;
8001;SDS011;4046;48.774;8.732;2023-08-30T02:36:32;2.23;;;1.57;;
8001;SDS011;4046;48.774;8.732;2023-08-30T02:38:58;2.27;;;1.30;;
8001;SDS011;4046;48.774;8.732;2023-08-30T02:41:24;1.60;;;1.50;;
8001;SDS011;4046;48.774;8.732;2023-08-30T02:43:50;1.40;;;1.20;;
8001;SDS011;4046;48.774;8.732;2023-08-30T02:46:15;1.33;;;1.23;;
8001;SDS011;4046;48.774;8.732;2023-08-30T02:48:41;1.47;;;1.37;;
8001;SDS011;4046;48.774;8.732;2023-08-30T02:51:07;1.97;;;1.30;;
8001;SDS011;4046;48.774;8.732;2023-08-30T02:53:32;1.50;;;1.40;;
8001;SDS011;4046;48.774;8.732;2023-08-30T02:55:58;1.50;;;1.40;;
8001;SDS011;4046;48.774;8.732;2023-08-30T02:58:23;1.40;;;1.20;;
8001;SDS011;4046;48.774;8.732;2023-08-30T03:00:49;1.60;;;1.40;;
8001;SDS011;4046;48.774;8.732;2023-08-30T03:03:15;1.30;;;1.20;;
8001;SDS011;4046;48.774;8.732;2023-08-30T03:05:41;1.50;;;1.37;;
8001;SDS011;4046;48.774;8.732;2023-08-30T03:08:06;2.13;;;1.67;;
8001;SDS011;4046;48.774;8.732;2023-08-30T03:10:32;1.60;;;1.20;;
8001;SDS011;4046;48.774;8.732;2023-08-30T03:12:58;1.40;;;1.30;;
8001;SDS011;4046;48.774;8.732;2023-08-30T03:15:23;4.23;;;1.77;;
8001;SDS011;4046;48.774;8.732;2023-08-30T03:17:49;1.40;;;1.30;;
8001;SDS011;4046;48.774;8.732;2023-08-30T03:20:15;1.50;;;1.30;;
8001;SDS011;4046;48.774;8.732;2023-08-30T03:22:41;2.10;;;1.50;;
8001;SDS011;4046;48.774;8.732;2023-08-30T03:25:07;1.40;;;1.30;;
8001;SDS011;4046;48.774;8.732;2023-08-30T03:27:34;1.30;;;1.20;;
8001;SDS011;4046;48.774;8.732;2023-08-30T03:30:03;1.20;;;1.00;;
8001;SDS011;4046;48.774;8.732;2023-08-30T03:32:29;2.00;;;1.27;;
8001;SDS011;4046;48.774;8.732;2023-08-30T03:34:57;1.70;;;1.30;;
8001;SDS011;4046;48.774;8.732;2023-08-30T03:37:23;1.30;;;1.20;;
8001;SDS011;4046;48.774;8.732;2023-08-30T03:39:49;1.30;;;1.10;;
8001;SDS011;4046;48.774;8.732;2023-08-30T03:42:14;1.40;;;1.30;;
8001;SDS011;4046;48.774;8.732;2023-08-30T03:44:40;1.50;;;1.40;;
8001;SDS011;4046;48.774;8.732;2023-08-30T03:47:06;1.43;;;1.33;;
8001;SDS011;4046;48.774;8.732;2023-08-30T03:49:32;1.37;;;1.27;;
8001;SDS011;4046;48.774;8.732;2023-08-30T03:51:58;1.47;;;1.37;;
8001;SDS011;4046;48.774;8.732;2023-08-30T03:54:23;1.60;;;1.50;;
8001;SDS011;4046;48.774;8.732;2023-08-30T03:56:49;1.73;;;1.63;;
8001;SDS011;4046;48.774;8.732;2023-08-30T03:59:15;1.30;;;1.20;;
8001;SDS011;4046;48.774;8.732;2023-08-30T04:01:41;1.47;;;1.37;;
8001;SDS011;4046;48.774;8.732;2023-08-30T04:04:06;1.40;;;1.30;;
8001;SDS011;4046;48.774;8.732;2023-08-30T04:06:32;1.77;;;1.30;;
8001;SDS011;4046;48.774;8.732;2023-08-30T04:08:57;1.43;;;1.33;;
8001;SDS011;4046;48.774;8.732;2023-08-30T04:11:23;1.40;;;1.30;;
8001;SDS011;4046;48.774;8.732;2023-08-30T04:13:49;1.63;;;1.53;;
8001;SDS011;4046;48.774;8.732;2023-08-30T04:16:14;1.40;;;1.30;;
8001;SDS011;4046;48.774;8.732;2023-08-30T04:18:40;1.40;;;1.30;;
8001;SDS011;4046;48.774;8.732;2023-08-30T04:21:06;1.30;;;1.20;;
8001;SDS011;4046;48.774;8.732;2023-08-30T04:23:33;1.60;;;1.50;;
8001;SDS011;4046;48.774;8.732;2023-08-30T04:26:00;1.50;;;1.40;;
8001;SDS011;4046;48.774;8.732;2023-08-30T04:28:25;1.60;;;1.37;;
8001;SDS011;4046;48.774;8.732;2023-08-30T04:30:54;1.40;;;1.30;;
8001;SDS011;4046;48.774;8.732;2023-08-30T04:33:21;1.30;;;1.20;;
8001;SDS011;4046;48.774;8.732;2023-08-30T04:35:51;1.40;;;1.30;;
8001;SDS011;4046;48.774;8.732;2023-08-30T04:38:18;1.47;;;1.37;;
8001;SDS011;4046;48.774;8.732;2023-08-30T04:40:45;1.43;;;1.33;;
8001;SDS011;4046;48.774;8.732;2023-08-30T04:43:11;1.40;;;1.30;;
8001;SDS011;4046;48.774;8.732;2023-08-30T04:45:37;1.40;;;1.30;;
8001;SDS011;4046;48.774;8.732;2023-08-30T04:48:03;1.40;;;1.30;;
8001;SDS011;4046;48.774;8.732;2023-08-30T04:50:29;1.47;;;1.37;;
8001;SDS011;4046;48.774;8.732;2023-08-30T04:52:55;1.50;;;1.40;;
8001;SDS011;4046;48.774;8.732;2023-08-30T04:55:23;1.50;;;1.40;;
8001;SDS011;4046;48.774;8.732;2023-08-30T04:57:50;1.50;;;1.40;;
8001;SDS011;4046;48.774;8.732;2023-08-30T05:00:16;1.37;;;1.27;;
8001;SDS011;4046;48.774;8.732;2023-08-30T05:02:42;1.77;;;1.67;;
8001;SDS011;4046;48.774;8.732;2023-08-30T05:05:09;1.80;;;1.70;;
8001;SDS011;4046;48.774;8.732;2023-08-30T05:07:35;1.40;;;1.20;;
8001;SDS011;4046;48.774;8.732;2023-08-30T05:10:01;1.40;;;1.30;;
8001;SDS011;4046;48.774;8.732;2023-08-30T05:12:28;1.57;;;1.47;;
8001;SDS011;4046;48.774;8.732;2023-08-30T05:14:53;1.43;;;1.33;;
8001;SDS011;4046;48.774;8.732;2023-08-30T05:17:19;1.27;;;1.17;;
8001;SDS011;4046;48.774;8.732;2023-08-30T05:19:45;2.70;;;1.37;;
8001;SDS011;4046;48.774;8.732;2023-08-30T05:22:11;2.17;;;1.30;;
8001;SDS011;4046;48.774;8.732;2023-08-30T05:24:37;1.37;;;1.27;;
8001;SDS011;4046;48.774;8.732;2023-08-30T05:27:02;1.40;;;1.30;;
8001;SDS011;4046;48.774;8.732;2023-08-30T05:29:28;1.53;;;1.43;;
8001;SDS011;4046;48.774;8.732;2023-08-30T05:31:54;1.50;;;1.40;;
8001;SDS011;4046;48.774;8.732;2023-08-30T05:34:20;1.57;;;1.47;;
8001;SDS011;4046;48.774;8.732;2023-08-30T05:36:45;1.50;;;1.40;;
8001;SDS011;4046;48.774;8.732;2023-08-30T05:39:11;1.30;;;1.20;;
8001;SDS011;4046;48.774;8.732;2023-08-30T05:41:37;1.50;;;1.40;;
8001;SDS011;4046;48.774;8.732;2023-08-30T05:44:03;1.50;;;1.30;;
8001;SDS011;4046;48.774;8.732;2023-08-30T05:46:29;5.57;;;1.20;;
8001;SDS011;4046;48.774;8.732;2023-08-30T05:48:55;1.40;;;1.30;;
8001;SDS011;4046;48.774;8.732;2023-08-30T05:51:21;1.50;;;1.40;;
8001;SDS011;4046;48.774;8.732;2023-08-30T05:53:46;1.40;;;1.30;;
8001;SDS011;4046;48.774;8.732;2023-08-30T05:56:12;1.40;;;1.30;;
8001;SDS011;4046;48.774;8.732;2023-08-30T05:58:38;1.30;;;1.10;;
8001;SDS011;4046;48.774;8.732;2023-08-30T06:01:04;1.43;;;1.33;;
8001;SDS011;4046;48.774;8.732;2023-08-30T06:03:31;1.50;;;1.20;;
8001;SDS011;4046;48.774;8.732;2023-08-30T06:05:57;1.30;;;1.20;;
8001;SDS011;4046;48.774;8.732;2023-08-30T06:08:23;1.57;;;1.47;;
8001;SDS011;4046;48.774;8.732;2023-08-30T06:10:48;1.40;;;1.30;;
8001;SDS011;4046;48.774;8.732;2023-08-30T06:13:14;1.47;;;1.33;;
8001;SDS011;4046;48.774;8.732;2023-08-30T06:15:40;1.67;;;1.57;;
8001;SDS011;4046;48.774;8.732;2023-08-30T06:18:06;1.30;;;1.10;;
8001;SDS011;4046;48.774;8.732;2023-08-30T06:20:32;1.67;;;1.40;;
8001;SDS011;4046;48.774;8.732;2023-08-30T06:22:58;1.40;;;1.30;;
8001;SDS011;4046;48.774;8.732;2023-08-30T06:25:24;1.40;;;1.30;;
8001;SDS011;4046;48.774;8.732;2023-08-30T06:27:57;2.03;;;1.30;;
8001;SDS011;4046;48.774;8.732;2023-08-30T06:30:27;1.37;;;1.27;;
8001;SDS011;4046;48.774;8.732;2023-08-30T06:32:54;1.87;;;1.23;;
8001;SDS011;4046;48.774;8.732;2023-08-30T06:35:21;2.03;;;1.40;;
8001;SDS011;4046;48.774;8.732;2023-08-30T06:37:47;4.43;;;1.60;;
8001;SDS011;4046;48.774;8.732;2023-08-30T06:40:13;1.50;;;1.40;;
8001;SDS011;4046;48.774;8.732;2023-08-30T06:42:39;1.60;;;1.47;;
8001;SDS011;4046;48.774;8.732;2023-08-30T06:45:05;1.73;;;1.50;;
8001;SDS011;4046;48.774;8.732;2023-08-30T06:47:31;1.60;;;1.50;;
8001;SDS011;4046;48.774;8.732;2023-08-30T06:49:57;1.40;;;1.17;;
8001;SDS011;4046;48.774;8.732;2023-08-30T06:52:24;2.60;;;1.43;;
8001;SDS011;4046;48.774;8.732;2023-08-30T06:54:50;3.43;;;1.40;;
8001;SDS011;4046;48.774;8.732;2023-08-30T06:57:15;1.50;;;1.30;;
8001;SDS011;4046;48.774;8.732;2023-08-30T06:59:41;5.50;;;1.57;;
8001;SDS011;4046;48.774;8.732;2023-08-30T07:02:07;8.13;;;1.67;;
8001;SDS011;4046;48.774;8.732;2023-08-30T07:04:33;3.80;;;1.73;;
8001;SDS011;4046;48.774;8.732;2023-08-30T07:06:59;2.87;;;1.50;;
8001;SDS011;4046;48.774;8.732;2023-08-30T07:09:25;2.00;;;1.33;;
8001;SDS011;4046;48.774;8.732;2023-08-30T07:11:57;2.10;;;1.60;;
8001;SDS011;4046;48.774;8.732;2023-08-30T07:14:23;2.77;;;1.60;;
8001;SDS011;4046;48.774;8.732;2023-08-30T07:16:49;1.60;;;1.40;;
8001;SDS011;4046;48.774;8.732;2023-08-30T07:19:18;1.60;;;1.50;;
8001;SDS011;4046;48.774;8.732;2023-08-30T07:21:44;2.50;;;1.60;;
8001;SDS011;4046;48.774;8.732;2023-08-30T07:24:10;3.00;;;1.50;;
8001;SDS011;4046;48.774;8.732;2023-08-30T07:26:36;1.67;;;1.57;;
8001;SDS011;4046;48.774;8.732;2023-08-30T07:29:03;1.50;;;1.40;;
8001;SDS011;4046;48.774;8.732;2023-08-30T07:31:32;4.10;;;1.40;;
8001;SDS011;4046;48.774;8.732;2023-08-30T07:33:58;1.97;;;1.60;;
8001;SDS011;4046;48.774;8.732;2023-08-30T07:36:25;1.77;;;1.50;;
8001;SDS011;4046;48.774;8.732;2023-08-30T07:38:51;3.50;;;1.50;;
8001;SDS011;4046;48.774;8.732;2023-08-30T07:41:17;1.50;;;1.40;;
8001;SDS011;4046;48.774;8.732;2023-08-30T07:43:43;2.53;;;1.50;;
8001;SDS011;4046;48.774;8.732;2023-08-30T07:46:09;2.13;;;1.57;;
8001;SDS011;4046;48.774;8.732;2023-08-30T07:48:34;2.00;;;1.60;;
8001;SDS011;4046;48.774;8.732;2023-08-30T07:51:00;1.87;;;1.77;;
8001;SDS011;4046;48.774;8.732;2023-08-30T07:53:26;2.93;;;1.83;;
8001;SDS011;4046;48.774;8.732;2023-08-30T07:55:52;2.57;;;1.70;;
8001;SDS011;4046;48.774;8.732;2023-08-30T07:58:17;1.83;;;1.63;;
8001;SDS011;4046;48.774;8.732;2023-08-30T08:00:43;1.50;;;1.40;;
8001;SDS011;4046;48.774;8.732;2023-08-30T08:03:09;2.37;;;1.60;;
8001;SDS011;4046;48.774;8.732;2023-08-30T08:05:36;1.50;;;1.40;;
8001;SDS011;4046;48.774;8.732;2023-08-30T08:08:02;1.50;;;1.40;;
8001;SDS011;4046;48.774;8.732;2023-08-30T08:10:32;2.70;;;1.60;;
8001;SDS011;4046;48.774;8.732;2023-08-30T08:13:01;1.80;;;1.50;;
8001;SDS011;4046;48.774;8.732;2023-08-30T08:15:29;2.17;;;1.57;;
8001;SDS011;4046;48.774;8.732;2023-08-30T08:17:59;1.70;;;1.60;;
8001;SDS011;4046;48.774;8.732;2023-08-30T08:20:26;5.43;;;1.73;;
8001;SDS011;4046;48.774;8.732;2023-08-30T08:22:53;4.50;;;1.70;;
8001;SDS011;4046;48.774;8.732;2023-08-30T08:25:19;4.97;;;2.10;;
8001;SDS011;4046;48.774;8.732;2023-08-30T08:27:47;3.63;;;1.70;;
8001;SDS011;4046;48.774;8.732;2023-08-30T08:30:13;3.77;;;1.90;;
8001;SDS011;4046;48.774;8.732;2023-08-30T08:32:39;6.50;;;1.70;;
8001;SDS011;4046;48.774;8.732;2023-08-30T08:35:05;1.77;;;1.67;;
8001;SDS011;4046;48.774;8.732;2023-08-30T08:37:31;1.70;;;1.60;;
8001;SDS011;4046;48.774;8.732;2023-08-30T08:39:57;2.77;;;1.50;;
8001;SDS011;4046;48.774;8.732;2023-08-30T08:42:23;2.50;;;1.60;;
8001;SDS011;4046;48.774;8.732;2023-08-30T08:44:53;2.83;;;1.43;;
8001;SDS011;4046;48.774;8.732;2023-08-30T08:47:20;1.90;;;1.70;;
8001;SDS011;4046;48.774;8.732;2023-08-30T08:49:46;3.77;;;1.93;;
8001;SDS011;4046;48.774;8.732;2023-08-30T08:52:13;2.23;;;1.60;;
8001;SDS011;4046;48.774;8.732;2023-08-30T08:54:40;2.37;;;1.53;;
8001;SDS011;4046;48.774;8.732;2023-08-30T08:57:07;2.97;;;2.47;;
8001;SDS011;4046;48.774;8.732;2023-08-30T08:59:33;2.13;;;1.73;;
8001;SDS011;4046;48.774;8.732;2023-08-30T09:01:59;5.43;;;2.10;;
8001;SDS011;4046;48.774;8.732;2023-08-30T09:04:25;3.80;;;2.13;;
8001;SDS011;4046;48.774;8.732;2023-08-30T09:06:53;8.20;;;1.70;;
8001;SDS011;4046;48.774;8.732;2023-08-30T09:09:19;8.87;;;2.20;;
8001;SDS011;4046;48.774;8.732;2023-08-30T09:11:44;3.30;;;2.00;;
8001;SDS011;4046;48.774;8.732;2023-08-30T09:14:10;5.77;;;1.93;;
8001;SDS011;4046;48.774;8.732;2023-08-30T09:16:36;3.57;;;2.13;;
8001;SDS011;4046;48.774;8.732;2023-08-30T09:19:02;6.13;;;2.27;;
8001;SDS011;4046;48.774;8.732;2023-08-30T09:21:30;8.27;;;2.73;;
8001;SDS011;4046;48.774;8.732;2023-08-30T09:23:59;1.93;;;1.73;;
8001;SDS011;4046;48.774;8.732;2023-08-30T09:26:26;2.73;;;1.90;;
8001;SDS011;4046;48.774;8.732;2023-08-30T09:29:06;1.93;;;1.83;;
8001;SDS011;4046;48.774;8.732;2023-08-30T09:31:35;2.60;;;1.90;;
8001;SDS011;4046;48.774;8.732;2023-08-30T09:34:02;4.37;;;2.30;;
8001;SDS011;4046;48.774;8.732;2023-08-30T09:36:36;7.60;;;2.40;;
8001;SDS011;4046;48.774;8.732;2023-08-30T09:39:09;3.83;;;2.03;;
8001;SDS011;4046;48.774;8.732;2023-08-30T09:41:37;3.20;;;2.00;;
8001;SDS011;4046;48.774;8.732;2023-08-30T09:44:08;8.30;;;2.90;;
8001;SDS011;4046;48.774;8.732;2023-08-30T09:46:42;10.37;;;2.30;;
8001;SDS011;4046;48.774;8.732;2023-08-30T09:49:09;13.53;;;2.30;;
8001;SDS011;4046;48.774;8.732;2023-08-30T09:51:37;7.77;;;2.43;;
8001;SDS011;4046;48.774;8.732;2023-08-30T09:54:10;5.67;;;2.00;;
8001;SDS011;4046;48.774;8.732;2023-08-30T09:56:42;4.20;;;2.10;;
8001;SDS011;4046;48.774;8.732;2023-08-30T09:59:09;4.67;;;2.20;;
8001;SDS011;4046;48.774;8.732;2023-08-30T10:01:37;4.00;;;2.10;;
8001;SDS011;4046;48.774;8.732;2023-08-30T10:04:18;5.17;;;2.40;;
8001;SDS011;4046;48.774;8.732;2023-08-30T10:06:45;6.87;;;2.20;;
8001;SDS011;4046;48.774;8.732;2023-08-30T10:09:12;3.03;;;2.30;;
8001;SDS011;4046;48.774;8.732;2023-08-30T10:11:40;5.10;;;2.00;;
8001;SDS011;4046;48.774;8.732;2023-08-30T10:14:06;2.73;;;1.90;;
8001;SDS011;4046;48.774;8.732;2023-08-30T10:16:37;8.27;;;2.40;;
8001;SDS011;4046;48.774;8.732;2023-08-30T10:19:14;2.60;;;1.90;;
8001;SDS011;4046;48.774;8.732;2023-08-30T10:21:43;2.17;;;1.97;;
8001;SDS011;4046;48.774;8.732;2023-08-30T10:24:10;2.77;;;2.03;;
8001;SDS011;4046;48.774;8.732;2023-08-30T10:26:39;2.23;;;1.90;;
8001;SDS011;4046;48.774;8.732;2023-08-30T10:29:07;3.00;;;2.00;;
8001;SDS011;4046;48.774;8.732;2023-08-30T10:31:34;4.13;;;2.20;;
8001;SDS011;4046;48.774;8.732;2023-08-30T10:34:00;4.93;;;2.00;;
8001;SDS011;4046;48.774;8.732;2023-08-30T10:36:26;3.50;;;2.10;;
8001;SDS011;4046;48.774;8.732;2023-08-30T10:38:52;2.60;;;1.77;;
8001;SDS011;4046;48.774;8.732;2023-08-30T10:41:23;2.83;;;2.10;;
8001;SDS011;4046;48.774;8.732;2023-08-30T10:43:51;5.20;;;2.00;;
8001;SDS011;4046;48.774;8.732;2023-08-30T10:46:32;2.90;;;2.20;;
8001;SDS011;4046;48.774;8.732;2023-08-30T10:49:09;3.30;;;2.07;;
8001;SDS011;4046;48.774;8.732;2023-08-30T10:51:40;2.07;;;1.87;;
8001;SDS011;4046;48.774;8.732;2023-08-30T10:57:12;3.87;;;2.30;;
8001;SDS011;4046;48.774;8.732;2023-08-30T10:59:38;3.20;;;2.20;;
8001;SDS011;4046;48.774;8.732;2023-08-30T11:02:04;2.47;;;2.03;;
8001;SDS011;4046;48.774;8.732;2023-08-30T11:04:31;2.50;;;2.30;;
8001;SDS011;4046;48.774;8.732;2023-08-30T11:06:57;3.67;;;2.13;;
8001;SDS011;4046;48.774;8.732;2023-08-30T11:09:23;2.83;;;2.20;;
8001;SDS011;4046;48.774;8.732;2023-08-30T11:11:50;2.70;;;2.03;;
8001;SDS011;4046;48.774;8.732;2023-08-30T11:14:17;2.77;;;2.20;;
8001;SDS011;4046;48.774;8.732;2023-08-30T11:16:43;2.30;;;2.10;;
8001;SDS011;4046;48.774;8.732;2023-08-30T11:19:10;10.10;;;2.37;;
8001;SDS011;4046;48.774;8.732;2023-08-30T11:21:43;5.73;;;2.50;;
8001;SDS011;4046;48.774;8.732;2023-08-30T11:24:10;5.20;;;2.40;;
8001;SDS011;4046;48.774;8.732;2023-08-30T11:26:37;3.93;;;2.30;;
8001;SDS011;4046;48.774;8.732;2023-08-30T11:29:06;5.30;;;2.80;;
8001;SDS011;4046;48.774;8.732;2023-08-30T11:31:33;3.43;;;2.20;;
8001;SDS011;4046;48.774;8.732;2023-08-30T11:34:00;5.37;;;2.50;;
8001;SDS011;4046;48.774;8.732;2023-08-30T11:36:27;3.80;;;2.03;;
8001;SDS011;4046;48.774;8.732;2023-08-30T11:38:54;10.27;;;3.53;;
8001;SDS011;4046;48.774;8.732;2023-08-30T11:41:21;3.60;;;2.63;;
8001;SDS011;4046;48.774;8.732;2023-08-30T11:43:47;3.10;;;2.30;;
8001;SDS011;4046;48.774;8.732;2023-08-30T11:46:13;9.73;;;2.83;;
8001;SDS011;4046;48.774;8.732;2023-08-30T11:48:40;10.50;;;2.50;;
8001;SDS011;4046;48.774;8.732;2023-08-30T11:51:07;9.07;;;3.10;;
8001;SDS011;4046;48.774;8.732;2023-08-30T11:53:34;6.17;;;2.50;;
8001;SDS011;4046;48.774;8.732;2023-08-30T11:56:07;7.37;;;2.30;;
8001;SDS011;4046;48.774;8.732;2023-08-30T11:58:34;6.17;;;2.73;;
8001;SDS011;4046;48.774;8.732;2023-08-30T12:01:01;8.20;;;2.60;;
8001;SDS011;4046;48.774;8.732;2023-08-30T12:03:28;4.90;;;2.40;;
8001;SDS011;4046;48.774;8.732;2023-08-30T12:05:55;5.07;;;2.53;;
8001;SDS011;4046;48.774;8.732;2023-08-30T12:08:25;7.70;;;2.80;;
8001;SDS011;4046;48.774;8.732;2023-08-30T12:10:53;4.23;;;2.70;;
8001;SDS011;4046;48.774;8.732;2023-08-30T12:13:20;8.90;;;3.00;;
8001;SDS011;4046;48.774;8.732;2023-08-30T12:15:46;6.90;;;2.73;;
8001;SDS011;4046;48.774;8.732;2023-08-30T12:18:12;6.63;;;2.57;;
8001;SDS011;4046;48.774;8.732;2023-08-30T12:20:38;6.73;;;2.97;;
8001;SDS011;4046;48.774;8.732;2023-08-30T12:23:04;4.77;;;2.50;;
8001;SDS011;4046;48.774;8.732;2023-08-30T12:25:30;4.80;;;2.60;;
8001;SDS011;4046;48.774;8.732;2023-08-30T12:27:57;3.63;;;2.47;;
8001;SDS011;4046;48.774;8.732;2023-08-30T12:30:23;4.20;;;2.57;;
8001;SDS011;4046;48.774;8.732;2023-08-30T12:32:49;3.30;;;2.17;;
8001;SDS011;4046;48.774;8.732;2023-08-30T12:35:14;3.63;;;2.30;;
8001;SDS011;4046;48.774;8.732;2023-08-30T12:37:40;3.00;;;2.50;;
8001;SDS011;4046;48.774;8.732;2023-08-30T12:40:06;2.17;;;1.97;;
8001;SDS011;4046;48.774;8.732;2023-08-30T12:42:33;2.00;;;1.90;;
8001;SDS011;4046;48.774;8.732;2023-08-30T12:44:59;5.00;;;2.17;;
8001;SDS011;4046;48.774;8.732;2023-08-30T12:47:25;4.03;;;2.30;;
8001;SDS011;4046;48.774;8.732;2023-08-30T12:49:51;2.93;;;2.00;;
8001;SDS011;4046;48.774;8.732;2023-08-30T12:52:16;3.17;;;2.20;;
8001;SDS011;4046;48.774;8.732;2023-08-30T12:54:42;2.20;;;2.00;;
8001;SDS011;4046;48.774;8.732;2023-08-30T12:57:08;3.97;;;1.83;;
8001;SDS011;4046;48.774;8.732;2023-08-30T12:59:33;5.40;;;2.33;;
8001;SDS011;4046;48.774;8.732;2023-08-30T13:01:59;6.60;;;1.93;;
8001;SDS011;4046;48.774;8.732;2023-08-30T13:04:25;4.20;;;2.60;;
8001;SDS011;4046;48.774;8.732;2023-08-30T13:06:51;3.67;;;2.77;;
8001;SDS011;4046;48.774;8.732;2023-08-30T13:09:17;8.80;;;2.20;;
8001;SDS011;4046;48.774;8.732;2023-08-30T13:11:43;10.13;;;2.63;;
8001;SDS011;4046;48.774;8.732;2023-08-30T13:14:08;6.17;;;2.33;;
8001;SDS011;4046;48.774;8.732;2023-08-30T13:16:34;6.90;;;2.90;;
8001;SDS011;4046;48.774;8.732;2023-08-30T13:19:00;5.17;;;2.90;;
8001;SDS011;4046;48.774;8.732;2023-08-30T13:21:26;4.97;;;2.20;;
8001;SDS011;4046;48.774;8.732;2023-08-30T13:23:52;2.93;;;1.93;;
8001;SDS011;4046;48.774;8.732;2023-08-30T13:26:18;2.97;;;2.17;;
8001;SDS011;4046;48.774;8.732;2023-08-30T13:28:44;4.30;;;2.30;;
8001;SDS011;4046;48.774;8.732;2023-08-30T13:31:10;2.97;;;1.97;;
8001;SDS011;4046;48.774;8.732;2023-08-30T13:33:35;2.30;;;2.10;;
8001;SDS011;4046;48.774;8.732;2023-08-30T13:36:01;4.20;;;2.20;;
8001;SDS011;4046;48.774;8.732;2023-08-30T13:38:28;2.73;;;1.90;;
8001;SDS011;4046;48.774;8.732;2023-08-30T13:41:00;8.10;;;2.33;;
8001;SDS011;4046;48.774;8.732;2023-08-30T13:43:26;5.00;;;2.07;;
8001;SDS011;4046;48.774;8.732;2023-08-30T13:45:58;2.50;;;2.10;;
8001;SDS011;4046;48.774;8.732;2023-08-30T13:48:24;2.37;;;1.60;;
8001;SDS011;4046;48.774;8.732;2023-08-30T13:50:50;2.40;;;1.70;;
8001;SDS011;4046;48.774;8.732;2023-08-30T13:53:16;2.20;;;2.00;;
8001;SDS011;4046;48.774;8.732;2023-08-30T13:55:45;2.97;;;2.13;;
8001;SDS011;4046;48.774;8.732;2023-08-30T13:58:13;1.93;;;1.70;;
8001;SDS011;4046;48.774;8.732;2023-08-30T14:00:39;2.90;;;1.80;;
8001;SDS011;4046;48.774;8.732;2023-08-30T14:03:05;6.53;;;2.20;;
8001;SDS011;4046;48.774;8.732;2023-08-30T14:05:31;3.23;;;1.97;;
8001;SDS011;4046;48.774;8.732;2023-08-30T14:07:56;4.20;;;1.80;;
8001;SDS011;4046;48.774;8.732;2023-08-30T14:10:22;6.97;;;2.40;;
8001;SDS011;4046;48.774;8.732;2023-08-30T14:12:48;2.20;;;1.80;;
8001;SDS011;4046;48.774;8.732;2023-08-30T14:15:14;2.63;;;2.10;;
8001;SDS011;4046;48.774;8.732;2023-08-30T14:17:41;2.67;;;1.90;;
8001;SDS011;4046;48.774;8.732;2023-08-30T14:20:07;2.43;;;1.63;;
8001;SDS011;4046;48.774;8.732;2023-08-30T14:22:33;3.00;;;2.10;;
8001;SDS011;4046;48.774;8.732;2023-08-30T14:24:59;3.00;;;1.83;;
8001;SDS011;4046;48.774;8.732;2023-08-30T14:27:25;5.50;;;2.40;;
8001;SDS011;4046;48.774;8.732;2023-08-30T14:29:51;2.13;;;2.03;;
8001;SDS011;4046;48.774;8.732;2023-08-30T14:32:17;2.33;;;1.70;;
8001;SDS011;4046;48.774;8.732;2023-08-30T14:34:42;2.97;;;2.03;;
8001;SDS011;4046;48.774;8.732;2023-08-30T14:37:08;2.00;;;1.80;;
8001;SDS011;4046;48.774;8.732;2023-08-30T14:39:34;2.10;;;2.00;;
8001;SDS011;4046;48.774;8.732;2023-08-30T14:42:00;2.97;;;2.30;;
8001;SDS011;4046;48.774;8.732;2023-08-30T14:44:25;2.10;;;2.00;;
8001;SDS011;4046;48.774;8.732;2023-08-30T14:46:53;3.90;;;1.63;;
8001;SDS011;4046;48.774;8.732;2023-08-30T14:49:19;3.97;;;1.77;;
8001;SDS011;4046;48.774;8.732;2023-08-30T14:51:44;7.00;;;3.03;;
8001;SDS011;4046;48.774;8.732;2023-08-30T14:54:10;3.00;;;2.23;;
8001;SDS011;4046;48.774;8.732;2023-08-30T14:56:36;2.40;;;2.20;;
8001;SDS011;4046;48.774;8.732;2023-08-30T14:59:02;9.40;;;2.17;;
8001;SDS011;4046;48.774;8.732;2023-08-30T15:01:28;7.47;;;2.07;;
8001;SDS011;4046;48.774;8.732;2023-08-30T15:03:53;3.10;;;1.70;;
8001;SDS011;4046;48.774;8.732;2023-08-30T15:06:19;4.87;;;2.00;;
8001;SDS011;4046;48.774;8.732;2023-08-30T15:08:45;4.40;;;2.03;;
8001;SDS011;4046;48.774;8.732;2023-08-30T15:11:11;2.97;;;2.00;;
8001;SDS011;4046;48.774;8.732;2023-08-30T15:13:37;2.77;;;1.73;;
8001;SDS011;4046;48.774;8.732;2023-08-30T15:16:03;4.60;;;1.80;;
8001;SDS011;4046;48.774;8.732;2023-08-30T15:18:29;3.17;;;2.30;;
8001;SDS011;4046;48.774;8.732;2023-08-30T15:20:55;2.30;;;1.53;;